Station info - map view · info · telemetry · weather · raw · status · beacons · messages · bulletins · browse · moving · my account
Callsign, ship name or locator: Clear       
It is possible to search using wildcards (*?) after a prefix. Example: OH*
APRS station KE0ZPO-9 - show graphs
Map loading...
Mic-E message: Off duty
Location: 39°36.10' N 104°42.91' W - locator DM79PO44EJ - show map - static map
6.2 miles Northeast bearing 23° from Parker, Douglas County, Colorado, United States [?]
6.8 miles Northeast bearing 44° from Stonegate, Douglas County, Colorado, United States
17.2 miles Southeast bearing 123° from Denver, Denver County, Colorado, United States
53.3 miles North bearing 6° from Colorado Springs, El Paso County, Colorado, United States
Last position: 2021-04-12 16:22:09 EDT (10d 17h47m ago)
2021-04-12 14:22:09 MDT local time at Parker, United States [?]
Altitude: 6115 ft
Course: 301°
Speed: 27 MPH
Device: Yaesu: FTM-100D (rig)
Last path: KE0ZPO-9>SYSVQP via WIDE1-1,qAO,W9CN-9 (good)
Positions stored: 712
Stations near current position of KE0ZPO-9 - show more
callsign distance last heard - EDT      callsign distance last heard - EDT
KE0HBX-100.8 miles 53°2021-03-30 20:36:14 KD5LPB-i0.8 miles 82°2021-04-22 20:00:41
KD5LPB0.8 miles 83°2021-04-22 06:36:14 AD1CT-50.9 miles 331°2021-04-02 22:01:23
KF0EXK-i0.9 miles 303°2021-04-10 01:46:26 KE0USS-90.9 miles 129°2021-03-26 20:22:42
KE0USS-N1.0 miles 130°2021-04-23 10:07:22 KF0DLC-N1.0 miles 130°2021-03-26 20:47:14
AB0Z-91.3 miles 95°2021-04-22 16:36:50 KA7CTM-i1.8 miles 97°2021-04-10 16:26:41
N0OBA-42.9 miles 307°2021-04-20 22:17:34 N0OBA2.9 miles 308°2021-04-10 15:35:04
W5RKA B2.9 miles 309°2021-04-04 18:55:53 W5RKA-B2.9 miles 309°2021-04-04 18:56:03
N0OBA-102.9 miles 308°2021-04-23 10:00:25 N0OBA-12.9 miles 308°2021-04-23 09:57:00
WH6VH3.1 miles 336°2021-04-23 10:05:05 KC0D-43.3 miles 256°2021-04-19 01:13:48
KE0WUI-93.4 miles 299°2021-04-19 18:51:13 KF0DBD-93.6 miles 129°2021-04-21 19:12:09
Stations which heard KE0ZPO-9 directly on radio –
callsign pkts first heard - EDT last heard longest (tx => rx) longest at - EDT
WERNER 1 2021-04-08 13:25:02 2021-04-08 13:25:02 DM69XO > DN60PK 67.9 miles 329° 2021-04-08 13:25:02
UBUTTE 4 2021-04-08 17:48:49 2021-04-08 18:18:03 DM58CW > DM58QN 67.9 miles 112° 2021-04-08 18:10:50
BAXTER 3 2021-04-08 16:53:52 2021-04-12 11:05:43 DM58HX > DM59MO 47.5 miles 27° 2021-04-08 17:34:21
GRAND 9 2021-04-08 16:23:48 2021-04-12 11:45:43 DM59OE > DM59VC 31.9 miles 101° 2021-04-08 17:04:09
BALD 10 2021-04-08 17:26:17 2021-04-08 18:34:07 DM59JC > DM58IM 38.7 miles 188° 2021-04-08 17:26:17
VAILMT 2 2021-04-08 13:39:19 2021-04-12 14:30:50 DM69VN > DM69TO 7.6 miles 304° 2021-04-08 13:39:19
ABAJO 15 2021-04-08 17:41:33 2021-04-12 10:45:34 DM58DX > DM57GU 78.7 miles 169° 2021-04-08 17:51:49
K7YI-4 3 2021-04-08 18:23:06 2021-04-12 10:00:30 DM58FN > DM49JF 98.3 miles 298° 2021-04-12 10:00:30
CLIMAX 2 2021-04-08 13:33:07 2021-04-08 13:35:07 DM69WM > DM69VJ 9.5 miles 200° 2021-04-08 13:33:07
SWANMT 3 2021-04-08 13:14:56 2021-04-08 13:31:07 DM79AQ > DM69XO 7.9 miles 215° 2021-04-08 13:14:56
DTSERO 4 2021-04-12 13:46:18 2021-04-12 14:00:01 DM69OP > DM69JP 18.3 miles 271° 2021-04-12 14:00:01
DOLLAR 2 2021-04-08 17:38:21 2021-04-08 18:28:07 DM58DR > DM67AX 109.1 miles 118° 2021-04-08 18:28:07
K0XK-5 21 2021-04-08 11:25:36 2021-04-12 16:21:38 DM79IR > DM79OO 27.6 miles 105° 2021-04-08 12:32:33
N4YRE 11 2021-04-08 11:39:05 2021-04-08 12:25:25 DM79JR > DM79NQ 18.0 miles 99° 2021-04-08 12:25:25
SANDFL 2 2021-04-12 09:56:06 2021-04-12 10:02:13 DM58FN > DM58FN 2.7 miles 90° 2021-04-12 09:56:06
ERIDGE 3 2021-04-08 13:18:58 2021-04-12 14:10:49 DM79AP > DM69SU 25.5 miles 299° 2021-04-08 13:18:58
K5RHD-10 2 2021-04-08 12:24:25 2021-04-08 12:26:25 DM79JQ > DM79KU 11.7 miles 32° 2021-04-08 12:26:25
K0NTS-5 6 2021-04-08 11:44:05 2021-04-08 12:44:37 DM79OQ > DM79GR 35.0 miles 275° 2021-04-08 11:44:05
W0ARP-3 10 2021-04-08 11:33:05 2021-04-08 12:39:37 DM79GR > DM79QL 45.3 miles 112° 2021-04-08 12:39:37
N0AUX-1 13 2021-04-08 11:34:01 2021-04-08 12:21:25 DM79OQ > DM79KG 33.6 miles 212° 2021-04-08 11:51:24
W9CN-9 1 2021-04-12 16:22:09 2021-04-12 16:22:09 DM79PO > DM79PL 9.4 miles 175° 2021-04-12 16:22:09
W0ARP-1 3 2021-04-08 11:27:07 2021-04-08 12:19:25 DM79KR > DM79QL 28.6 miles 124° 2021-04-08 12:19:25
AB0TJ 4 2021-04-08 16:26:47 2021-04-08 16:51:47 DM59VH > DM59SC 21.6 miles 225° 2021-04-08 16:26:47
W0UPS-15 1 2021-04-08 11:50:20 2021-04-08 11:50:20 DM79OQ > DN70JN 64.1 miles 340° 2021-04-08 11:50:20
WA6IFI-12 1 2021-04-12 16:17:41 2021-04-12 16:17:41 DM79ON > DM78MS 54.9 miles 192° 2021-04-12 16:17:41
N0TOA-10 1 2021-04-08 11:53:04 2021-04-08 11:53:04 DM79OQ > DM79OO 3.6 miles 176° 2021-04-08 11:53:04
W0SCA-10 2 2021-04-08 12:52:41 2021-04-08 12:55:45 DM79DR > DM79ET 5.9 miles 15° 2021-04-08 12:55:45

Only position packets which were originated by the station are shown here. The range statistics show some extra long hops, because some digipeaters do not correctly add themselves to the digipeater path. Please check the raw packets.
About this site
This page shows real-time information collected from the Automatic Position Reporting System Internet network (APRS-IS). APRS is used by amateur (ham) radio operators to transmit real-time position information, weather data, telemetry and messages over the radio. A vehicle equipped with a GPS receiver, a VHF transmitter or HF transceiver and a small computer device called a tracker transmits it's location, speed and course in a small data packet, which is then received by a nearby iGate receiving site which forwards the packet on the Internet. Systems connected to the Internet can send information on the APRS-IS without a radio transmitter, or collect and display information transmitted anywhere in the world.
User guide · FAQ · Blog · Discussion group · Linking to aprs.fi · AIS sites · Service status · Database statistics · Advertising on aprs.fi · Technical details · API · Change log · Planned changes · Credits and thanks · Terms Of Service · iPhone/iPad APRS